sensor_id;sensor_type;location;lat;lon;timestamp;P1;durP1;ratioP1;P2;durP2;ratioP2
26598;SDS011;14240;51.064;16.612;2023-03-01T00:00:21;79.53;;;30.40;;
26598;SDS011;14240;51.064;16.612;2023-03-01T00:02:46;73.88;;;29.38;;
26598;SDS011;14240;51.064;16.612;2023-03-01T00:05:12;76.80;;;31.00;;
26598;SDS011;14240;51.064;16.612;2023-03-01T00:07:38;81.50;;;31.50;;
26598;SDS011;14240;51.064;16.612;2023-03-01T00:10:04;82.72;;;33.08;;
26598;SDS011;14240;51.064;16.612;2023-03-01T00:12:30;93.65;;;37.53;;
26598;SDS011;14240;51.064;16.612;2023-03-01T00:14:56;88.00;;;35.22;;
26598;SDS011;14240;51.064;16.612;2023-03-01T00:17:22;88.78;;;34.17;;
26598;SDS011;14240;51.064;16.612;2023-03-01T00:19:48;81.45;;;32.22;;
26598;SDS011;14240;51.064;16.612;2023-03-01T00:22:13;82.00;;;32.95;;
26598;SDS011;14240;51.064;16.612;2023-03-01T00:24:39;98.63;;;40.50;;
26598;SDS011;14240;51.064;16.612;2023-03-01T00:27:05;93.35;;;39.92;;
26598;SDS011;14240;51.064;16.612;2023-03-01T00:29:31;77.88;;;32.33;;
26598;SDS011;14240;51.064;16.612;2023-03-01T00:31:56;82.32;;;33.88;;
26598;SDS011;14240;51.064;16.612;2023-03-01T00:34:22;88.80;;;33.55;;
26598;SDS011;14240;51.064;16.612;2023-03-01T00:36:48;88.13;;;33.45;;
26598;SDS011;14240;51.064;16.612;2023-03-01T00:39:14;84.72;;;35.60;;
26598;SDS011;14240;51.064;16.612;2023-03-01T00:41:41;86.77;;;34.97;;
26598;SDS011;14240;51.064;16.612;2023-03-01T00:44:07;85.18;;;33.38;;
26598;SDS011;14240;51.064;16.612;2023-03-01T00:46:33;88.72;;;34.08;;
26598;SDS011;14240;51.064;16.612;2023-03-01T00:48:58;85.88;;;37.65;;
26598;SDS011;14240;51.064;16.612;2023-03-01T00:51:27;87.45;;;36.78;;
26598;SDS011;14240;51.064;16.612;2023-03-01T00:53:54;86.50;;;34.60;;
26598;SDS011;14240;51.064;16.612;2023-03-01T00:56:21;83.75;;;36.30;;
26598;SDS011;14240;51.064;16.612;2023-03-01T00:58:47;96.20;;;35.20;;
26598;SDS011;14240;51.064;16.612;2023-03-01T01:01:17;99.25;;;36.67;;
26598;SDS011;14240;51.064;16.612;2023-03-01T01:03:49;85.18;;;35.83;;
26598;SDS011;14240;51.064;16.612;2023-03-01T01:06:17;99.20;;;37.17;;
26598;SDS011;14240;51.064;16.612;2023-03-01T01:08:46;89.22;;;34.30;;
26598;SDS011;14240;51.064;16.612;2023-03-01T01:11:13;87.03;;;33.83;;
26598;SDS011;14240;51.064;16.612;2023-03-01T01:13:39;106.60;;;41.45;;
26598;SDS011;14240;51.064;16.612;2023-03-01T01:16:06;105.53;;;44.90;;
26598;SDS011;14240;51.064;16.612;2023-03-01T01:18:33;109.13;;;44.40;;
26598;SDS011;14240;51.064;16.612;2023-03-01T01:21:02;106.00;;;40.20;;
26598;SDS011;14240;51.064;16.612;2023-03-01T01:23:33;87.75;;;36.47;;
26598;SDS011;14240;51.064;16.612;2023-03-01T01:26:42;104.15;;;39.47;;
26598;SDS011;14240;51.064;16.612;2023-03-01T01:28:50;98.97;;;35.67;;
26598;SDS011;14240;51.064;16.612;2023-03-01T01:31:16;105.05;;;36.38;;
26598;SDS011;14240;51.064;16.612;2023-03-01T01:33:43;106.88;;;38.95;;
26598;SDS011;14240;51.064;16.612;2023-03-01T01:36:09;109.45;;;39.55;;
26598;SDS011;14240;51.064;16.612;2023-03-01T01:38:37;113.35;;;40.00;;
26598;SDS011;14240;51.064;16.612;2023-03-01T01:41:03;98.05;;;38.17;;
26598;SDS011;14240;51.064;16.612;2023-03-01T01:43:36;105.20;;;41.10;;
26598;SDS011;14240;51.064;16.612;2023-03-01T01:48:58;103.78;;;40.95;;
26598;SDS011;14240;51.064;16.612;2023-03-01T01:51:28;93.43;;;38.65;;
26598;SDS011;14240;51.064;16.612;2023-03-01T01:54:05;102.65;;;39.38;;
26598;SDS011;14240;51.064;16.612;2023-03-01T01:56:35;114.47;;;38.75;;
26598;SDS011;14240;51.064;16.612;2023-03-01T01:59:03;104.15;;;40.72;;
26598;SDS011;14240;51.064;16.612;2023-03-01T02:01:29;117.40;;;39.00;;
26598;SDS011;14240;51.064;16.612;2023-03-01T02:03:54;105.43;;;38.40;;
26598;SDS011;14240;51.064;16.612;2023-03-01T02:08:59;97.60;;;35.73;;
26598;SDS011;14240;51.064;16.612;2023-03-01T02:11:30;99.30;;;37.47;;
26598;SDS011;14240;51.064;16.612;2023-03-01T02:13:57;117.28;;;39.80;;
26598;SDS011;14240;51.064;16.612;2023-03-01T02:16:23;101.35;;;38.22;;
26598;SDS011;14240;51.064;16.612;2023-03-01T02:18:51;109.38;;;39.72;;
26598;SDS011;14240;51.064;16.612;2023-03-01T02:26:48;96.45;;;37.38;;
26598;SDS011;14240;51.064;16.612;2023-03-01T02:29:21;103.43;;;40.15;;
26598;SDS011;14240;51.064;16.612;2023-03-01T02:31:48;108.43;;;39.03;;
26598;SDS011;14240;51.064;16.612;2023-03-01T02:34:17;104.55;;;40.35;;
26598;SDS011;14240;51.064;16.612;2023-03-01T02:36:55;110.65;;;43.20;;
26598;SDS011;14240;51.064;16.612;2023-03-01T02:39:26;150.70;;;57.35;;
26598;SDS011;14240;51.064;16.612;2023-03-01T02:42:07;163.23;;;61.28;;
26598;SDS011;14240;51.064;16.612;2023-03-01T02:44:40;164.77;;;62.08;;
26598;SDS011;14240;51.064;16.612;2023-03-01T02:47:06;121.43;;;45.72;;
26598;SDS011;14240;51.064;16.612;2023-03-01T02:49:33;108.38;;;41.95;;
26598;SDS011;14240;51.064;16.612;2023-03-01T02:57:34;90.57;;;35.35;;
26598;SDS011;14240;51.064;16.612;2023-03-01T03:00:09;92.20;;;35.60;;
26598;SDS011;14240;51.064;16.612;2023-03-01T03:02:44;90.05;;;33.25;;
26598;SDS011;14240;51.064;16.612;2023-03-01T03:05:18;98.13;;;35.95;;
26598;SDS011;14240;51.064;16.612;2023-03-01T03:07:52;120.10;;;40.00;;
26598;SDS011;14240;51.064;16.612;2023-03-01T03:10:20;110.30;;;39.90;;
26598;SDS011;14240;51.064;16.612;2023-03-01T03:12:51;104.85;;;41.55;;
26598;SDS011;14240;51.064;16.612;2023-03-01T03:15:19;123.25;;;42.92;;
26598;SDS011;14240;51.064;16.612;2023-03-01T03:17:45;123.15;;;42.88;;
26598;SDS011;14240;51.064;16.612;2023-03-01T03:20:12;123.25;;;43.33;;
26598;SDS011;14240;51.064;16.612;2023-03-01T03:22:44;123.30;;;42.45;;
26598;SDS011;14240;51.064;16.612;2023-03-01T03:25:11;125.63;;;46.55;;
26598;SDS011;14240;51.064;16.612;2023-03-01T03:27:37;125.70;;;45.72;;
26598;SDS011;14240;51.064;16.612;2023-03-01T03:30:05;123.30;;;44.57;;
26598;SDS011;14240;51.064;16.612;2023-03-01T03:32:40;112.68;;;41.70;;
26598;SDS011;14240;51.064;16.612;2023-03-01T03:35:07;129.25;;;45.42;;
26598;SDS011;14240;51.064;16.612;2023-03-01T03:37:38;119.80;;;45.50;;
26598;SDS011;14240;51.064;16.612;2023-03-01T03:40:23;123.43;;;43.08;;
26598;SDS011;14240;51.064;16.612;2023-03-01T03:42:49;119.03;;;43.40;;
26598;SDS011;14240;51.064;16.612;2023-03-01T03:45:15;123.30;;;44.28;;
26598;SDS011;14240;51.064;16.612;2023-03-01T03:47:42;138.77;;;44.70;;
26598;SDS011;14240;51.064;16.612;2023-03-01T03:50:09;109.55;;;42.13;;
26598;SDS011;14240;51.064;16.612;2023-03-01T03:52:36;102.03;;;39.40;;
26598;SDS011;14240;51.064;16.612;2023-03-01T03:55:02;110.38;;;40.78;;
26598;SDS011;14240;51.064;16.612;2023-03-01T03:57:28;104.75;;;41.63;;
26598;SDS011;14240;51.064;16.612;2023-03-01T03:59:54;125.32;;;42.95;;
26598;SDS011;14240;51.064;16.612;2023-03-01T04:02:20;123.32;;;44.60;;
26598;SDS011;14240;51.064;16.612;2023-03-01T04:04:49;124.18;;;47.00;;
26598;SDS011;14240;51.064;16.612;2023-03-01T04:07:15;136.55;;;49.80;;
26598;SDS011;14240;51.064;16.612;2023-03-01T04:09:42;152.37;;;51.30;;
26598;SDS011;14240;51.064;16.612;2023-03-01T04:12:09;154.97;;;50.63;;
26598;SDS011;14240;51.064;16.612;2023-03-01T04:14:35;157.70;;;55.45;;
26598;SDS011;14240;51.064;16.612;2023-03-01T04:17:01;130.43;;;50.22;;
26598;SDS011;14240;51.064;16.612;2023-03-01T04:19:30;124.65;;;47.03;;
26598;SDS011;14240;51.064;16.612;2023-03-01T04:22:01;128.60;;;46.20;;
26598;SDS011;14240;51.064;16.612;2023-03-01T04:24:37;135.90;;;46.50;;
26598;SDS011;14240;51.064;16.612;2023-03-01T04:27:03;120.25;;;44.92;;
26598;SDS011;14240;51.064;16.612;2023-03-01T04:29:29;138.75;;;49.92;;
26598;SDS011;14240;51.064;16.612;2023-03-01T04:31:55;135.15;;;49.40;;
26598;SDS011;14240;51.064;16.612;2023-03-01T04:34:20;133.30;;;46.72;;
26598;SDS011;14240;51.064;16.612;2023-03-01T04:36:46;138.73;;;48.97;;
26598;SDS011;14240;51.064;16.612;2023-03-01T04:39:12;239.90;;;69.50;;
26598;SDS011;14240;51.064;16.612;2023-03-01T04:41:38;261.17;;;71.38;;
26598;SDS011;14240;51.064;16.612;2023-03-01T04:44:07;228.55;;;64.45;;
26598;SDS011;14240;51.064;16.612;2023-03-01T04:46:34;180.35;;;55.60;;
26598;SDS011;14240;51.064;16.612;2023-03-01T04:49:00;140.45;;;47.38;;
26598;SDS011;14240;51.064;16.612;2023-03-01T04:51:30;130.43;;;45.65;;
26598;SDS011;14240;51.064;16.612;2023-03-01T04:53:57;120.47;;;40.72;;
26598;SDS011;14240;51.064;16.612;2023-03-01T04:56:25;122.10;;;41.28;;
26598;SDS011;14240;51.064;16.612;2023-03-01T04:58:52;122.88;;;42.00;;
26598;SDS011;14240;51.064;16.612;2023-03-01T05:01:19;125.60;;;45.70;;
26598;SDS011;14240;51.064;16.612;2023-03-01T05:03:46;129.90;;;46.33;;
26598;SDS011;14240;51.064;16.612;2023-03-01T05:06:14;113.15;;;40.63;;
26598;SDS011;14240;51.064;16.612;2023-03-01T05:08:40;104.82;;;38.78;;
26598;SDS011;14240;51.064;16.612;2023-03-01T05:11:07;103.47;;;38.85;;
26598;SDS011;14240;51.064;16.612;2023-03-01T05:13:34;107.17;;;39.20;;
26598;SDS011;14240;51.064;16.612;2023-03-01T05:16:01;93.13;;;35.83;;
26598;SDS011;14240;51.064;16.612;2023-03-01T05:18:29;104.10;;;38.30;;
26598;SDS011;14240;51.064;16.612;2023-03-01T05:21:02;105.72;;;39.78;;
26598;SDS011;14240;51.064;16.612;2023-03-01T05:23:30;94.45;;;37.60;;
26598;SDS011;14240;51.064;16.612;2023-03-01T05:25:57;111.55;;;41.38;;
26598;SDS011;14240;51.064;16.612;2023-03-01T05:28:24;101.55;;;37.78;;
26598;SDS011;14240;51.064;16.612;2023-03-01T05:30:51;127.57;;;44.97;;
26598;SDS011;14240;51.064;16.612;2023-03-01T05:33:17;156.10;;;50.38;;
26598;SDS011;14240;51.064;16.612;2023-03-01T05:35:44;147.25;;;50.25;;
26598;SDS011;14240;51.064;16.612;2023-03-01T05:38:11;120.63;;;45.42;;
26598;SDS011;14240;51.064;16.612;2023-03-01T05:40:44;158.10;;;52.53;;
26598;SDS011;14240;51.064;16.612;2023-03-01T05:43:12;155.13;;;52.58;;
26598;SDS011;14240;51.064;16.612;2023-03-01T05:45:39;143.43;;;49.25;;
26598;SDS011;14240;51.064;16.612;2023-03-01T05:48:06;137.40;;;50.80;;
26598;SDS011;14240;51.064;16.612;2023-03-01T05:50:34;138.65;;;50.83;;
26598;SDS011;14240;51.064;16.612;2023-03-01T05:53:02;130.18;;;49.42;;
26598;SDS011;14240;51.064;16.612;2023-03-01T05:55:33;143.43;;;50.50;;
26598;SDS011;14240;51.064;16.612;2023-03-01T05:58:00;127.55;;;47.60;;
26598;SDS011;14240;51.064;16.612;2023-03-01T06:00:28;138.35;;;53.33;;
26598;SDS011;14240;51.064;16.612;2023-03-01T06:02:55;150.00;;;55.50;;
26598;SDS011;14240;51.064;16.612;2023-03-01T06:05:21;122.88;;;44.75;;
26598;SDS011;14240;51.064;16.612;2023-03-01T06:07:48;124.45;;;48.63;;
26598;SDS011;14240;51.064;16.612;2023-03-01T06:10:15;115.40;;;46.37;;
26598;SDS011;14240;51.064;16.612;2023-03-01T06:12:41;116.65;;;44.38;;
26598;SDS011;14240;51.064;16.612;2023-03-01T06:15:08;109.45;;;43.95;;
26598;SDS011;14240;51.064;16.612;2023-03-01T06:17:36;122.75;;;45.90;;
26598;SDS011;14240;51.064;16.612;2023-03-01T06:20:04;122.70;;;46.47;;
26598;SDS011;14240;51.064;16.612;2023-03-01T06:22:31;114.57;;;46.28;;
26598;SDS011;14240;51.064;16.612;2023-03-01T06:24:57;125.05;;;49.35;;
26598;SDS011;14240;51.064;16.612;2023-03-01T06:27:23;118.45;;;44.40;;
26598;SDS011;14240;51.064;16.612;2023-03-01T06:29:48;115.18;;;41.38;;
26598;SDS011;14240;51.064;16.612;2023-03-01T06:32:14;108.30;;;40.47;;
26598;SDS011;14240;51.064;16.612;2023-03-01T06:34:40;110.00;;;42.13;;
26598;SDS011;14240;51.064;16.612;2023-03-01T06:37:06;106.15;;;40.28;;
26598;SDS011;14240;51.064;16.612;2023-03-01T06:39:32;135.17;;;43.90;;
26598;SDS011;14240;51.064;16.612;2023-03-01T06:41:58;99.53;;;38.08;;
26598;SDS011;14240;51.064;16.612;2023-03-01T06:44:24;109.13;;;40.45;;
26598;SDS011;14240;51.064;16.612;2023-03-01T06:46:50;111.15;;;38.92;;
26598;SDS011;14240;51.064;16.612;2023-03-01T06:49:16;109.72;;;38.97;;
26598;SDS011;14240;51.064;16.612;2023-03-01T06:51:43;109.03;;;43.13;;
26598;SDS011;14240;51.064;16.612;2023-03-01T06:54:09;109.40;;;42.57;;
26598;SDS011;14240;51.064;16.612;2023-03-01T06:56:35;109.15;;;42.65;;
26598;SDS011;14240;51.064;16.612;2023-03-01T06:59:01;118.50;;;46.22;;
26598;SDS011;14240;51.064;16.612;2023-03-01T07:01:28;102.43;;;43.95;;
26598;SDS011;14240;51.064;16.612;2023-03-01T07:03:56;102.53;;;43.03;;
26598;SDS011;14240;51.064;16.612;2023-03-01T07:06:22;103.65;;;41.45;;
26598;SDS011;14240;51.064;16.612;2023-03-01T07:08:48;124.53;;;48.75;;
26598;SDS011;14240;51.064;16.612;2023-03-01T07:11:14;136.57;;;51.97;;
26598;SDS011;14240;51.064;16.612;2023-03-01T07:13:41;140.30;;;54.17;;
26598;SDS011;14240;51.064;16.612;2023-03-01T07:16:07;129.90;;;51.30;;
26598;SDS011;14240;51.064;16.612;2023-03-01T07:18:33;117.05;;;50.45;;
26598;SDS011;14240;51.064;16.612;2023-03-01T07:21:03;104.35;;;47.22;;
26598;SDS011;14240;51.064;16.612;2023-03-01T07:23:30;120.30;;;50.63;;
26598;SDS011;14240;51.064;16.612;2023-03-01T07:25:56;138.77;;;58.40;;
26598;SDS011;14240;51.064;16.612;2023-03-01T07:28:22;142.50;;;57.92;;
26598;SDS011;14240;51.064;16.612;2023-03-01T07:30:49;129.00;;;58.37;;
26598;SDS011;14240;51.064;16.612;2023-03-01T07:33:15;134.93;;;60.67;;
26598;SDS011;14240;51.064;16.612;2023-03-01T07:35:42;139.68;;;62.42;;
26598;SDS011;14240;51.064;16.612;2023-03-01T07:38:08;159.55;;;69.60;;
26598;SDS011;14240;51.064;16.612;2023-03-01T07:40:34;158.90;;;69.45;;
26598;SDS011;14240;51.064;16.612;2023-03-01T07:43:00;148.90;;;69.55;;
26598;SDS011;14240;51.064;16.612;2023-03-01T07:45:26;146.88;;;70.28;;
26598;SDS011;14240;51.064;16.612;2023-03-01T07:47:53;124.03;;;62.40;;
26598;SDS011;14240;51.064;16.612;2023-03-01T07:50:19;120.88;;;59.65;;
26598;SDS011;14240;51.064;16.612;2023-03-01T07:52:46;116.65;;;63.35;;
26598;SDS011;14240;51.064;16.612;2023-03-01T07:55:12;132.75;;;63.50;;
26598;SDS011;14240;51.064;16.612;2023-03-01T07:57:38;117.90;;;60.80;;
26598;SDS011;14240;51.064;16.612;2023-03-01T08:00:04;121.72;;;61.00;;
26598;SDS011;14240;51.064;16.612;2023-03-01T08:02:30;114.22;;;61.20;;
26598;SDS011;14240;51.064;16.612;2023-03-01T08:04:56;119.75;;;63.65;;
26598;SDS011;14240;51.064;16.612;2023-03-01T08:07:22;112.35;;;63.88;;
26598;SDS011;14240;51.064;16.612;2023-03-01T08:09:48;122.70;;;64.18;;
26598;SDS011;14240;51.064;16.612;2023-03-01T08:12:14;106.30;;;58.95;;
26598;SDS011;14240;51.064;16.612;2023-03-01T08:14:42;102.47;;;56.25;;
26598;SDS011;14240;51.064;16.612;2023-03-01T08:17:08;93.45;;;55.15;;
26598;SDS011;14240;51.064;16.612;2023-03-01T08:19:34;88.63;;;49.58;;
26598;SDS011;14240;51.064;16.612;2023-03-01T08:22:01;89.68;;;52.40;;
26598;SDS011;14240;51.064;16.612;2023-03-01T08:24:27;94.03;;;54.67;;
26598;SDS011;14240;51.064;16.612;2023-03-01T08:26:53;93.65;;;55.15;;
26598;SDS011;14240;51.064;16.612;2023-03-01T08:29:19;99.30;;;58.90;;
26598;SDS011;14240;51.064;16.612;2023-03-01T08:31:46;103.15;;;60.40;;
26598;SDS011;14240;51.064;16.612;2023-03-01T08:34:13;91.70;;;59.20;;
26598;SDS011;14240;51.064;16.612;2023-03-01T08:36:42;96.68;;;59.35;;
26598;SDS011;14240;51.064;16.612;2023-03-01T08:41:35;96.93;;;60.17;;
26598;SDS011;14240;51.064;16.612;2023-03-01T08:44:01;123.10;;;74.88;;
26598;SDS011;14240;51.064;16.612;2023-03-01T08:46:28;109.10;;;67.93;;
26598;SDS011;14240;51.064;16.612;2023-03-01T08:48:56;85.82;;;56.83;;
26598;SDS011;14240;51.064;16.612;2023-03-01T08:51:22;88.15;;;56.83;;
26598;SDS011;14240;51.064;16.612;2023-03-01T08:53:49;70.97;;;49.10;;
26598;SDS011;14240;51.064;16.612;2023-03-01T08:56:15;66.07;;;47.45;;
26598;SDS011;14240;51.064;16.612;2023-03-01T08:58:45;66.70;;;47.10;;
26598;SDS011;14240;51.064;16.612;2023-03-01T09:01:14;77.35;;;49.10;;
26598;SDS011;14240;51.064;16.612;2023-03-01T09:03:41;68.32;;;45.65;;
26598;SDS011;14240;51.064;16.612;2023-03-01T09:06:08;59.42;;;40.78;;
26598;SDS011;14240;51.064;16.612;2023-03-01T09:08:41;57.45;;;41.42;;
26598;SDS011;14240;51.064;16.612;2023-03-01T09:11:09;67.07;;;45.03;;
26598;SDS011;14240;51.064;16.612;2023-03-01T09:13:36;58.45;;;39.72;;
26598;SDS011;14240;51.064;16.612;2023-03-01T09:16:03;46.60;;;32.28;;
26598;SDS011;14240;51.064;16.612;2023-03-01T09:18:32;44.65;;;30.92;;
26598;SDS011;14240;51.064;16.612;2023-03-01T09:21:02;44.08;;;31.52;;
26598;SDS011;14240;51.064;16.612;2023-03-01T09:23:32;42.25;;;31.50;;
26598;SDS011;14240;51.064;16.612;2023-03-01T09:25:59;45.08;;;32.35;;
26598;SDS011;14240;51.064;16.612;2023-03-01T09:28:25;48.65;;;35.08;;
26598;SDS011;14240;51.064;16.612;2023-03-01T09:30:50;48.10;;;36.40;;
26598;SDS011;14240;51.064;16.612;2023-03-01T09:33:16;49.20;;;36.47;;
26598;SDS011;14240;51.064;16.612;2023-03-01T09:35:42;54.20;;;37.00;;
26598;SDS011;14240;51.064;16.612;2023-03-01T09:38:12;47.45;;;34.13;;
26598;SDS011;14240;51.064;16.612;2023-03-01T09:40:42;48.13;;;34.92;;
26598;SDS011;14240;51.064;16.612;2023-03-01T09:46:04;46.53;;;33.33;;
26598;SDS011;14240;51.064;16.612;2023-03-01T09:48:37;50.40;;;36.30;;
26598;SDS011;14240;51.064;16.612;2023-03-01T09:51:15;51.33;;;36.38;;
26598;SDS011;14240;51.064;16.612;2023-03-01T09:53:45;46.70;;;37.03;;
26598;SDS011;14240;51.064;16.612;2023-03-01T09:58:58;50.95;;;37.00;;
26598;SDS011;14240;51.064;16.612;2023-03-01T10:01:45;51.67;;;36.30;;
26598;SDS011;14240;51.064;16.612;2023-03-01T10:06:44;48.05;;;32.08;;
26598;SDS011;14240;51.064;16.612;2023-03-01T10:09:16;49.22;;;33.00;;
26598;SDS011;14240;51.064;16.612;2023-03-01T10:11:48;47.28;;;31.83;;
26598;SDS011;14240;51.064;16.612;2023-03-01T10:17:24;53.90;;;35.25;;
26598;SDS011;14240;51.064;16.612;2023-03-01T10:20:18;58.80;;;32.50;;
26598;SDS011;14240;51.064;16.612;2023-03-01T10:22:49;50.42;;;33.45;;
26598;SDS011;14240;51.064;16.612;2023-03-01T10:28:17;53.78;;;32.35;;
26598;SDS011;14240;51.064;16.612;2023-03-01T10:30:50;54.55;;;33.00;;
26598;SDS011;14240;51.064;16.612;2023-03-01T10:35:45;52.08;;;31.48;;
26598;SDS011;14240;51.064;16.612;2023-03-01T10:38:12;49.95;;;31.00;;
26598;SDS011;14240;51.064;16.612;2023-03-01T10:43:45;53.25;;;31.27;;
26598;SDS011;14240;51.064;16.612;2023-03-01T10:46:25;56.55;;;33.25;;
26598;SDS011;14240;51.064;16.612;2023-03-01T10:51:43;52.67;;;32.15;;
26598;SDS011;14240;51.064;16.612;2023-03-01T10:54:17;58.45;;;32.95;;
26598;SDS011;14240;51.064;16.612;2023-03-01T10:57:01;54.05;;;31.50;;
26598;SDS011;14240;51.064;16.612;2023-03-01T11:05:28;58.80;;;30.58;;
26598;SDS011;14240;51.064;16.612;2023-03-01T11:07:58;53.22;;;31.17;;
26598;SDS011;14240;51.064;16.612;2023-03-01T11:10:25;55.60;;;31.75;;
26598;SDS011;14240;51.064;16.612;2023-03-01T11:12:53;56.67;;;32.67;;
26598;SDS011;14240;51.064;16.612;2023-03-01T11:15:30;56.72;;;31.38;;
26598;SDS011;14240;51.064;16.612;2023-03-01T11:17:56;64.70;;;35.20;;
26598;SDS011;14240;51.064;16.612;2023-03-01T11:20:35;61.35;;;32.20;;
26598;SDS011;14240;51.064;16.612;2023-03-01T11:23:03;53.28;;;29.05;;
26598;SDS011;14240;51.064;16.612;2023-03-01T11:25:35;57.50;;;32.08;;
26598;SDS011;14240;51.064;16.612;2023-03-01T11:28:03;54.13;;;30.65;;
26598;SDS011;14240;51.064;16.612;2023-03-01T11:38:47;51.05;;;27.77;;
26598;SDS011;14240;51.064;16.612;2023-03-01T11:41:32;49.88;;;27.38;;
26598;SDS011;14240;51.064;16.612;2023-03-01T11:44:02;52.63;;;27.50;;
26598;SDS011;14240;51.064;16.612;2023-03-01T11:46:39;49.63;;;27.00;;
26598;SDS011;14240;51.064;16.612;2023-03-01T11:57:29;51.90;;;27.48;;
26598;SDS011;14240;51.064;16.612;2023-03-01T12:08:42;56.08;;;29.35;;
26598;SDS011;14240;51.064;16.612;2023-03-01T12:14:39;53.15;;;27.33;;
26598;SDS011;14240;51.064;16.612;2023-03-01T12:26:16;50.55;;;26.77;;
26598;SDS011;14240;51.064;16.612;2023-03-01T12:44:41;47.22;;;24.17;;
26598;SDS011;14240;51.064;16.612;2023-03-01T12:50:02;51.25;;;25.45;;
26598;SDS011;14240;51.064;16.612;2023-03-01T12:53:10;51.67;;;26.48;;
26598;SDS011;14240;51.064;16.612;2023-03-01T12:55:38;55.80;;;25.13;;
26598;SDS011;14240;51.064;16.612;2023-03-01T13:06:35;49.20;;;25.15;;
26598;SDS011;14240;51.064;16.612;2023-03-01T13:09:18;41.25;;;21.35;;
26598;SDS011;14240;51.064;16.612;2023-03-01T13:11:49;36.53;;;19.92;;
26598;SDS011;14240;51.064;16.612;2023-03-01T13:16:50;37.33;;;20.13;;
26598;SDS011;14240;51.064;16.612;2023-03-01T13:19:23;44.42;;;22.25;;
26598;SDS011;14240;51.064;16.612;2023-03-01T13:21:52;32.85;;;17.20;;
26598;SDS011;14240;51.064;16.612;2023-03-01T13:24:40;32.50;;;17.45;;
26598;SDS011;14240;51.064;16.612;2023-03-01T13:32:21;36.70;;;17.80;;
26598;SDS011;14240;51.064;16.612;2023-03-01T13:34:54;36.65;;;19.25;;
26598;SDS011;14240;51.064;16.612;2023-03-01T13:37:41;35.70;;;18.42;;
26598;SDS011;14240;51.064;16.612;2023-03-01T13:40:56;39.03;;;18.25;;
26598;SDS011;14240;51.064;16.612;2023-03-01T13:42:53;38.60;;;18.92;;
26598;SDS011;14240;51.064;16.612;2023-03-01T13:48:25;41.75;;;20.42;;
26598;SDS011;14240;51.064;16.612;2023-03-01T13:51:02;40.80;;;19.90;;
26598;SDS011;14240;51.064;16.612;2023-03-01T13:53:35;37.40;;;18.90;;
26598;SDS011;14240;51.064;16.612;2023-03-01T13:56:08;33.35;;;17.35;;
26598;SDS011;14240;51.064;16.612;2023-03-01T13:58:53;37.05;;;19.17;;
26598;SDS011;14240;51.064;16.612;2023-03-01T14:01:26;34.15;;;18.13;;
26598;SDS011;14240;51.064;16.612;2023-03-01T14:03:56;34.47;;;16.83;;
26598;SDS011;14240;51.064;16.612;2023-03-01T14:06:27;41.92;;;17.38;;
26598;SDS011;14240;51.064;16.612;2023-03-01T14:09:14;33.42;;;17.55;;
26598;SDS011;14240;51.064;16.612;2023-03-01T14:19:19;32.58;;;17.23;;
26598;SDS011;14240;51.064;16.612;2023-03-01T14:21:58;31.20;;;17.55;;
26598;SDS011;14240;51.064;16.612;2023-03-01T14:24:45;34.33;;;16.35;;
26598;SDS011;14240;51.064;16.612;2023-03-01T14:27:17;35.15;;;16.48;;
26598;SDS011;14240;51.064;16.612;2023-03-01T14:29:43;33.58;;;16.98;;
26598;SDS011;14240;51.064;16.612;2023-03-01T14:32:20;37.10;;;17.58;;
26598;SDS011;14240;51.064;16.612;2023-03-01T14:34:49;33.90;;;16.65;;
26598;SDS011;14240;51.064;16.612;2023-03-01T14:37:19;28.27;;;15.35;;
26598;SDS011;14240;51.064;16.612;2023-03-01T14:39:47;32.75;;;15.80;;
26598;SDS011;14240;51.064;16.612;2023-03-01T14:42:14;28.08;;;15.32;;
26598;SDS011;14240;51.064;16.612;2023-03-01T14:44:42;35.90;;;15.82;;
26598;SDS011;14240;51.064;16.612;2023-03-01T14:47:11;31.55;;;16.75;;
26598;SDS011;14240;51.064;16.612;2023-03-01T14:49:41;30.50;;;15.15;;
26598;SDS011;14240;51.064;16.612;2023-03-01T14:52:17;32.97;;;16.95;;
26598;SDS011;14240;51.064;16.612;2023-03-01T14:54:47;33.67;;;16.15;;
26598;SDS011;14240;51.064;16.612;2023-03-01T14:57:24;39.90;;;17.83;;
26598;SDS011;14240;51.064;16.612;2023-03-01T14:59:51;35.63;;;17.73;;
26598;SDS011;14240;51.064;16.612;2023-03-01T15:02:24;33.10;;;16.15;;
26598;SDS011;14240;51.064;16.612;2023-03-01T15:04:52;29.25;;;14.95;;
26598;SDS011;14240;51.064;16.612;2023-03-01T15:07:26;33.15;;;14.80;;
26598;SDS011;14240;51.064;16.612;2023-03-01T15:09:57;32.10;;;15.60;;
26598;SDS011;14240;51.064;16.612;2023-03-01T15:14:53;32.42;;;15.13;;
26598;SDS011;14240;51.064;16.612;2023-03-01T15:19:55;29.73;;;14.90;;
26598;SDS011;14240;51.064;16.612;2023-03-01T15:22:21;32.38;;;14.70;;
26598;SDS011;14240;51.064;16.612;2023-03-01T15:24:50;26.75;;;13.60;;
26598;SDS011;14240;51.064;16.612;2023-03-01T15:27:17;25.88;;;13.35;;
26598;SDS011;14240;51.064;16.612;2023-03-01T15:29:50;27.75;;;13.30;;
26598;SDS011;14240;51.064;16.612;2023-03-01T15:32:29;26.65;;;12.70;;
26598;SDS011;14240;51.064;16.612;2023-03-01T15:34:57;24.42;;;13.15;;
26598;SDS011;14240;51.064;16.612;2023-03-01T15:37:47;31.42;;;14.05;;
26598;SDS011;14240;51.064;16.612;2023-03-01T15:40:25;29.15;;;13.70;;
26598;SDS011;14240;51.064;16.612;2023-03-01T15:43:03;22.55;;;12.00;;
26598;SDS011;14240;51.064;16.612;2023-03-01T15:45:33;29.33;;;12.80;;
26598;SDS011;14240;51.064;16.612;2023-03-01T15:48:03;30.08;;;13.18;;
26598;SDS011;14240;51.064;16.612;2023-03-01T15:50:57;25.65;;;13.13;;
26598;SDS011;14240;51.064;16.612;2023-03-01T15:53:24;23.80;;;11.85;;
26598;SDS011;14240;51.064;16.612;2023-03-01T15:55:52;28.27;;;13.35;;
26598;SDS011;14240;51.064;16.612;2023-03-01T15:58:19;27.55;;;13.50;;
26598;SDS011;14240;51.064;16.612;2023-03-01T16:00:49;25.50;;;12.30;;
26598;SDS011;14240;51.064;16.612;2023-03-01T16:03:21;26.40;;;12.50;;
26598;SDS011;14240;51.064;16.612;2023-03-01T16:05:51;23.50;;;10.93;;
26598;SDS011;14240;51.064;16.612;2023-03-01T16:08:17;25.10;;;11.27;;
26598;SDS011;14240;51.064;16.612;2023-03-01T16:10:43;18.35;;;9.32;;
26598;SDS011;14240;51.064;16.612;2023-03-01T16:13:14;24.08;;;11.45;;
26598;SDS011;14240;51.064;16.612;2023-03-01T16:15:40;25.85;;;9.95;;
26598;SDS011;14240;51.064;16.612;2023-03-01T16:18:06;21.60;;;10.07;;
26598;SDS011;14240;51.064;16.612;2023-03-01T16:20:35;23.05;;;11.50;;
26598;SDS011;14240;51.064;16.612;2023-03-01T16:23:01;23.15;;;10.77;;
26598;SDS011;14240;51.064;16.612;2023-03-01T16:25:30;22.25;;;10.63;;
26598;SDS011;14240;51.064;16.612;2023-03-01T16:27:57;25.50;;;12.13;;
26598;SDS011;14240;51.064;16.612;2023-03-01T16:30:25;29.02;;;11.85;;